sensor_id;sensor_type;location;lat;lon;timestamp;pressure;altitude;pressure_sealevel;temperature;humidity
46347;BME280;32057;47.830;19.046;2022-10-31T00:00:28;100860.06;;;12.23;100.00
46347;BME280;32057;47.830;19.046;2022-10-31T00:02:53;100854.84;;;12.23;100.00
46347;BME280;32057;47.830;19.046;2022-10-31T00:05:19;100854.84;;;12.23;100.00
46347;BME280;32057;47.830;19.046;2022-10-31T00:07:44;100858.34;;;12.24;100.00
46347;BME280;32057;47.830;19.046;2022-10-31T00:10:09;100852.19;;;12.20;100.00
46347;BME280;32057;47.830;19.046;2022-10-31T00:12:35;100861.81;;;12.23;100.00
46347;BME280;32057;47.830;19.046;2022-10-31T00:15:00;100859.06;;;12.18;100.00
46347;BME280;32057;47.830;19.046;2022-10-31T00:17:25;100857.25;;;12.14;100.00
46347;BME280;32057;47.830;19.046;2022-10-31T00:19:51;100856.44;;;12.17;100.00
46347;BME280;32057;47.830;19.046;2022-10-31T00:22:16;100864.28;;;12.18;100.00
46347;BME280;32057;47.830;19.046;2022-10-31T00:24:42;100866.91;;;12.18;100.00
46347;BME280;32057;47.830;19.046;2022-10-31T00:27:07;100857.31;;;12.17;100.00
46347;BME280;32057;47.830;19.046;2022-10-31T00:29:33;100861.72;;;12.20;100.00
46347;BME280;32057;47.830;19.046;2022-10-31T00:31:58;100859.13;;;12.20;100.00
46347;BME280;32057;47.830;19.046;2022-10-31T00:34:23;100854.81;;;12.22;100.00
46347;BME280;32057;47.830;19.046;2022-10-31T00:36:49;100854.75;;;12.19;100.00
46347;BME280;32057;47.830;19.046;2022-10-31T00:39:14;100853.81;;;12.15;100.00
46347;BME280;32057;47.830;19.046;2022-10-31T00:41:39;100852.84;;;12.11;100.00
46347;BME280;32057;47.830;19.046;2022-10-31T00:44:05;100849.41;;;12.12;100.00
46347;BME280;32057;47.830;19.046;2022-10-31T00:46:30;100850.28;;;12.13;100.00
46347;BME280;32057;47.830;19.046;2022-10-31T00:48:56;100851.22;;;12.17;100.00
46347;BME280;32057;47.830;19.046;2022-10-31T00:51:21;100847.75;;;12.18;100.00
46347;BME280;32057;47.830;19.046;2022-10-31T00:53:46;100849.59;;;12.20;100.00
46347;BME280;32057;47.830;19.046;2022-10-31T00:56:12;100848.41;;;12.07;100.00
46347;BME280;32057;47.830;19.046;2022-10-31T00:58:37;100842.97;;;11.98;100.00
46347;BME280;32057;47.830;19.046;2022-10-31T01:01:03;100837.84;;;12.01;100.00
46347;BME280;32057;47.830;19.046;2022-10-31T01:03:31;100839.72;;;12.07;100.00
46347;BME280;32057;47.830;19.046;2022-10-31T01:06:06;100845.94;;;12.13;100.00
46347;BME280;32057;47.830;19.046;2022-10-31T01:08:32;100840.75;;;12.15;100.00
46347;BME280;32057;47.830;19.046;2022-10-31T01:13:28;100841.59;;;12.14;100.00
46347;BME280;32057;47.830;19.046;2022-10-31T01:15:55;100838.19;;;12.18;100.00
46347;BME280;32057;47.830;19.046;2022-10-31T01:18:21;100832.09;;;12.18;100.00
46347;BME280;32057;47.830;19.046;2022-10-31T01:20:46;100828.66;;;12.19;100.00
46347;BME280;32057;47.830;19.046;2022-10-31T01:23:12;100831.16;;;12.14;100.00
46347;BME280;32057;47.830;19.046;2022-10-31T01:25:37;100834.50;;;12.07;100.00
46347;BME280;32057;47.830;19.046;2022-10-31T01:28:03;100828.31;;;12.03;100.00
46347;BME280;32057;47.830;19.046;2022-10-31T01:30:28;100831.78;;;12.02;100.00
46347;BME280;32057;47.830;19.046;2022-10-31T01:32:53;100826.63;;;12.05;100.00
46347;BME280;32057;47.830;19.046;2022-10-31T01:35:19;100824.88;;;12.06;100.00
46347;BME280;32057;47.830;19.046;2022-10-31T01:37:44;100825.84;;;12.09;100.00
46347;BME280;32057;47.830;19.046;2022-10-31T01:40:10;100819.72;;;12.07;100.00
46347;BME280;32057;47.830;19.046;2022-10-31T01:42:35;100822.28;;;12.04;100.00
46347;BME280;32057;47.830;19.046;2022-10-31T01:45:01;100817.97;;;12.06;100.00
46347;BME280;32057;47.830;19.046;2022-10-31T01:47:32;100811.94;;;12.09;100.00
46347;BME280;32057;47.830;19.046;2022-10-31T01:50:00;100813.66;;;12.10;100.00
46347;BME280;32057;47.830;19.046;2022-10-31T01:52:32;100817.19;;;12.10;100.00
46347;BME280;32057;47.830;19.046;2022-10-31T01:55:05;100809.38;;;12.10;100.00
46347;BME280;32057;47.830;19.046;2022-10-31T01:57:32;100805.88;;;12.11;100.00
46347;BME280;32057;47.830;19.046;2022-10-31T02:00:01;100809.97;;;12.00;100.00
46347;BME280;32057;47.830;19.046;2022-10-31T02:02:29;100810.72;;;11.93;100.00
46347;BME280;32057;47.830;19.046;2022-10-31T02:04:56;100805.09;;;11.77;100.00
46347;BME280;32057;47.830;19.046;2022-10-31T02:07:34;100807.53;;;11.70;100.00
46347;BME280;32057;47.830;19.046;2022-10-31T02:10:02;100812.00;;;11.75;100.00
46347;BME280;32057;47.830;19.046;2022-10-31T02:12:30;100815.66;;;11.84;100.00
46347;BME280;32057;47.830;19.046;2022-10-31T02:14:56;100806.31;;;11.90;100.00
46347;BME280;32057;47.830;19.046;2022-10-31T02:17:22;100810.75;;;11.96;100.00
46347;BME280;32057;47.830;19.046;2022-10-31T02:20:12;100809.97;;;12.00;100.00
46347;BME280;32057;47.830;19.046;2022-10-31T02:31:54;100815.53;;;11.77;100.00
46347;BME280;32057;47.830;19.046;2022-10-31T02:37:14;100814.13;;;11.90;100.00
46347;BME280;32057;47.830;19.046;2022-10-31T02:39:56;100811.63;;;11.95;100.00
46347;BME280;32057;47.830;19.046;2022-10-31T02:42:40;100813.38;;;11.96;100.00
46347;BME280;32057;47.830;19.046;2022-10-31T02:45:17;100815.16;;;11.97;100.00
46347;BME280;32057;47.830;19.046;2022-10-31T02:47:47;100821.28;;;11.99;100.00
46347;BME280;32057;47.830;19.046;2022-10-31T02:50:19;100822.19;;;12.01;100.00
46347;BME280;32057;47.830;19.046;2022-10-31T02:52:50;100822.09;;;11.97;100.00
46347;BME280;32057;47.830;19.046;2022-10-31T02:57:48;100827.31;;;11.98;100.00
46347;BME280;32057;47.830;19.046;2022-10-31T03:00:14;100823.84;;;11.98;100.00
46347;BME280;32057;47.830;19.046;2022-10-31T03:02:55;100828.00;;;11.89;100.00
46347;BME280;32057;47.830;19.046;2022-10-31T03:08:14;100838.38;;;11.88;100.00
46347;BME280;32057;47.830;19.046;2022-10-31T03:10:58;100841.03;;;11.89;100.00
46347;BME280;32057;47.830;19.046;2022-10-31T03:13:41;100840.16;;;11.89;100.00
46347;BME280;32057;47.830;19.046;2022-10-31T03:16:14;100842.00;;;11.93;100.00
46347;BME280;32057;47.830;19.046;2022-10-31T03:18:46;100838.31;;;11.85;100.00
46347;BME280;32057;47.830;19.046;2022-10-31T03:22:25;100846.97;;;11.84;100.00
46347;BME280;32057;47.830;19.046;2022-10-31T03:24:19;100849.50;;;11.81;100.00
46347;BME280;32057;47.830;19.046;2022-10-31T03:26:49;100846.03;;;11.82;100.00
46347;BME280;32057;47.830;19.046;2022-10-31T03:29:19;100846.09;;;11.83;100.00
46347;BME280;32057;47.830;19.046;2022-10-31T03:31:50;100852.25;;;11.87;100.00
46347;BME280;32057;47.830;19.046;2022-10-31T03:34:17;100855.00;;;11.91;100.00
46347;BME280;32057;47.830;19.046;2022-10-31T03:36:45;100849.78;;;11.91;100.00
46347;BME280;32057;47.830;19.046;2022-10-31T03:39:14;100850.75;;;11.95;100.00
46347;BME280;32057;47.830;19.046;2022-10-31T03:41:45;100849.66;;;11.87;100.00
46347;BME280;32057;47.830;19.046;2022-10-31T03:44:16;100848.59;;;11.79;100.00
46347;BME280;32057;47.830;19.046;2022-10-31T03:46:43;100853.00;;;11.81;100.00
46347;BME280;32057;47.830;19.046;2022-10-31T03:49:10;100850.47;;;11.86;100.00
46347;BME280;32057;47.830;19.046;2022-10-31T03:54:36;100845.38;;;11.89;100.00
46347;BME280;32057;47.830;19.046;2022-10-31T03:59:43;100851.47;;;11.89;100.00
46347;BME280;32057;47.830;19.046;2022-10-31T04:02:22;100851.41;;;11.88;100.00
46347;BME280;32057;47.830;19.046;2022-10-31T04:04:50;100851.47;;;11.89;100.00
46347;BME280;32057;47.830;19.046;2022-10-31T04:07:17;100856.72;;;11.91;100.00
46347;BME280;32057;47.830;19.046;2022-10-31T04:09:45;100854.91;;;11.88;100.00
46347;BME280;32057;47.830;19.046;2022-10-31T04:12:14;100854.00;;;11.88;100.00
46347;BME280;32057;47.830;19.046;2022-10-31T04:14:43;100855.81;;;11.89;100.00
46347;BME280;32057;47.830;19.046;2022-10-31T04:17:13;100851.47;;;11.89;100.00
46347;BME280;32057;47.830;19.046;2022-10-31T04:19:39;100850.47;;;11.86;100.00
46347;BME280;32057;47.830;19.046;2022-10-31T04:22:05;100853.09;;;11.84;100.00
46347;BME280;32057;47.830;19.046;2022-10-31T04:24:31;100855.69;;;11.86;100.00
46347;BME280;32057;47.830;19.046;2022-10-31T04:26:56;100845.22;;;11.83;100.00
46347;BME280;32057;47.830;19.046;2022-10-31T04:29:21;100855.66;;;11.83;100.00
46347;BME280;32057;47.830;19.046;2022-10-31T04:31:47;100855.69;;;11.86;100.00
46347;BME280;32057;47.830;19.046;2022-10-31T04:34:12;100851.19;;;11.79;100.00
46347;BME280;32057;47.830;19.046;2022-10-31T04:36:38;100853.72;;;11.75;100.00
46347;BME280;32057;47.830;19.046;2022-10-31T04:39:03;100852.03;;;11.77;100.00
46347;BME280;32057;47.830;19.046;2022-10-31T04:41:29;100856.41;;;11.79;100.00
46347;BME280;32057;47.830;19.046;2022-10-31T04:43:54;100856.38;;;11.77;100.00
46347;BME280;32057;47.830;19.046;2022-10-31T04:46:20;100851.97;;;11.74;100.00
46347;BME280;32057;47.830;19.046;2022-10-31T04:48:45;100855.50;;;11.76;100.00
46347;BME280;32057;47.830;19.046;2022-10-31T04:51:11;100860.72;;;11.76;100.00
46347;BME280;32057;47.830;19.046;2022-10-31T04:53:36;100861.63;;;11.79;100.00
46347;BME280;32057;47.830;19.046;2022-10-31T04:56:01;100868.56;;;11.78;100.00
46347;BME280;32057;47.830;19.046;2022-10-31T04:58:27;100870.25;;;11.76;100.00
46347;BME280;32057;47.830;19.046;2022-10-31T05:00:54;100865.94;;;11.76;100.00
46347;BME280;32057;47.830;19.046;2022-10-31T05:03:20;100869.47;;;11.79;100.00
46347;BME280;32057;47.830;19.046;2022-10-31T05:05:45;100869.47;;;11.79;100.00
46347;BME280;32057;47.830;19.046;2022-10-31T05:08:11;100872.06;;;11.80;100.00
46347;BME280;32057;47.830;19.046;2022-10-31T05:10:36;100878.19;;;11.81;100.00
46347;BME280;32057;47.830;19.046;2022-10-31T05:13:03;100871.16;;;11.76;100.00
46347;BME280;32057;47.830;19.046;2022-10-31T05:15:29;100875.44;;;11.76;100.00
46347;BME280;32057;47.830;19.046;2022-10-31T05:17:55;100868.53;;;11.76;100.00
46347;BME280;32057;47.830;19.046;2022-10-31T05:20:26;100864.16;;;11.75;100.00
46347;BME280;32057;47.830;19.046;2022-10-31T05:22:54;100867.69;;;11.77;100.00
46347;BME280;32057;47.830;19.046;2022-10-31T05:25:22;100870.28;;;11.77;100.00
46347;BME280;32057;47.830;19.046;2022-10-31T05:27:50;100871.16;;;11.76;100.00
46347;BME280;32057;47.830;19.046;2022-10-31T05:30:18;100873.75;;;11.76;100.00
46347;BME280;32057;47.830;19.046;2022-10-31T05:32:47;100880.84;;;11.82;100.00
46347;BME280;32057;47.830;19.046;2022-10-31T05:35:15;100876.50;;;11.83;100.00
46347;BME280;32057;47.830;19.046;2022-10-31T05:37:41;100884.31;;;11.83;100.00
46347;BME280;32057;47.830;19.046;2022-10-31T05:40:08;100875.53;;;11.79;100.00
46347;BME280;32057;47.830;19.046;2022-10-31T05:42:35;100883.41;;;11.81;100.00
46347;BME280;32057;47.830;19.046;2022-10-31T05:45:00;100886.03;;;11.81;100.00
46347;BME280;32057;47.830;19.046;2022-10-31T05:47:26;100875.59;;;11.81;100.00
46347;BME280;32057;47.830;19.046;2022-10-31T05:49:52;100879.13;;;11.83;100.00
46347;BME280;32057;47.830;19.046;2022-10-31T05:52:17;100880.84;;;11.84;100.00
46347;BME280;32057;47.830;19.046;2022-10-31T05:54:43;100880.84;;;11.84;100.00
46347;BME280;32057;47.830;19.046;2022-10-31T05:57:08;100887.81;;;11.83;100.00
46347;BME280;32057;47.830;19.046;2022-10-31T05:59:34;100884.31;;;11.83;100.00
46347;BME280;32057;47.830;19.046;2022-10-31T06:01:59;100886.06;;;11.82;100.00
46347;BME280;32057;47.830;19.046;2022-10-31T06:04:25;100880.84;;;11.82;100.00
46347;BME280;32057;47.830;19.046;2022-10-31T06:06:50;100888.66;;;11.82;100.00
46347;BME280;32057;47.830;19.046;2022-10-31T06:09:16;100890.41;;;11.83;100.00
46347;BME280;32057;47.830;19.046;2022-10-31T06:11:41;100881.75;;;11.84;100.00
46347;BME280;32057;47.830;19.046;2022-10-31T06:14:06;100891.19;;;11.79;100.00
46347;BME280;32057;47.830;19.046;2022-10-31T06:16:32;100903.41;;;11.82;100.00
46347;BME280;32057;47.830;19.046;2022-10-31T06:18:57;100909.44;;;11.79;100.00
46347;BME280;32057;47.830;19.046;2022-10-31T06:21:23;100898.91;;;11.76;100.00
46347;BME280;32057;47.830;19.046;2022-10-31T06:23:48;100897.22;;;11.76;100.00
46347;BME280;32057;47.830;19.046;2022-10-31T06:26:14;100903.19;;;11.72;100.00
46347;BME280;32057;47.830;19.046;2022-10-31T06:28:39;100899.72;;;11.73;100.00
46347;BME280;32057;47.830;19.046;2022-10-31T06:31:05;100909.34;;;11.74;100.00
46347;BME280;32057;47.830;19.046;2022-10-31T06:33:30;100904.91;;;11.72;100.00
46347;BME280;32057;47.830;19.046;2022-10-31T06:35:56;100900.59;;;11.72;100.00
46347;BME280;32057;47.830;19.046;2022-10-31T06:38:21;100908.28;;;11.68;100.00
46347;BME280;32057;47.830;19.046;2022-10-31T06:40:46;100911.66;;;11.64;100.00
46347;BME280;32057;47.830;19.046;2022-10-31T06:43:12;100908.91;;;11.57;100.00
46347;BME280;32057;47.830;19.046;2022-10-31T06:45:39;100922.75;;;11.55;100.00
46347;BME280;32057;47.830;19.046;2022-10-31T06:48:05;100925.41;;;11.58;100.00
46347;BME280;32057;47.830;19.046;2022-10-31T06:50:30;100915.91;;;11.60;100.00
46347;BME280;32057;47.830;19.046;2022-10-31T06:52:57;100926.25;;;11.57;100.00
46347;BME280;32057;47.830;19.046;2022-10-31T06:55:24;100919.44;;;11.62;100.00
46347;BME280;32057;47.830;19.046;2022-10-31T06:58:00;100919.44;;;11.62;100.00
46347;BME280;32057;47.830;19.046;2022-10-31T07:00:27;100920.41;;;11.66;100.00
46347;BME280;32057;47.830;19.046;2022-10-31T07:03:12;100918.66;;;11.65;100.00
46347;BME280;32057;47.830;19.046;2022-10-31T07:05:38;100923.72;;;11.60;100.00
46347;BME280;32057;47.830;19.046;2022-10-31T07:08:07;100926.31;;;11.59;100.00
46347;BME280;32057;47.830;19.046;2022-10-31T07:10:35;100926.41;;;11.63;100.00
46347;BME280;32057;47.830;19.046;2022-10-31T07:13:03;100934.41;;;11.69;100.00
46347;BME280;32057;47.830;19.046;2022-10-31T07:15:33;100934.50;;;11.74;100.00
46347;BME280;32057;47.830;19.046;2022-10-31T07:18:00;100935.47;;;11.77;100.00
46347;BME280;32057;47.830;19.046;2022-10-31T07:20:29;100946.75;;;11.76;100.00
46347;BME280;32057;47.830;19.046;2022-10-31T07:22:55;100942.41;;;11.77;100.00
46347;BME280;32057;47.830;19.046;2022-10-31T07:25:21;100941.50;;;11.75;100.00
46347;BME280;32057;47.830;19.046;2022-10-31T07:27:46;100941.56;;;11.78;100.00
46347;BME280;32057;47.830;19.046;2022-10-31T07:30:13;100944.22;;;11.80;100.00
46347;BME280;32057;47.830;19.046;2022-10-31T07:32:47;100941.50;;;11.75;100.00
46347;BME280;32057;47.830;19.046;2022-10-31T07:35:15;100951.13;;;11.77;100.00
46347;BME280;32057;47.830;19.046;2022-10-31T07:37:40;100953.00;;;11.83;100.00
46347;BME280;32057;47.830;19.046;2022-10-31T07:40:07;100949.50;;;11.83;100.00
46347;BME280;32057;47.830;19.046;2022-10-31T07:42:44;100952.06;;;11.81;100.00
46347;BME280;32057;47.830;19.046;2022-10-31T07:45:12;100950.28;;;11.79;100.00
46347;BME280;32057;47.830;19.046;2022-10-31T07:47:41;100952.88;;;11.79;100.00
46347;BME280;32057;47.830;19.046;2022-10-31T07:50:09;100953.81;;;11.81;100.00
46347;BME280;32057;47.830;19.046;2022-10-31T07:52:34;100949.41;;;11.80;100.00
46347;BME280;32057;47.830;19.046;2022-10-31T07:55:00;100947.69;;;11.79;100.00
46347;BME280;32057;47.830;19.046;2022-10-31T07:57:26;100950.16;;;11.74;100.00
46347;BME280;32057;47.830;19.046;2022-10-31T07:59:51;100942.41;;;11.77;100.00
46347;BME280;32057;47.830;19.046;2022-10-31T08:02:17;100945.91;;;11.77;100.00
46347;BME280;32057;47.830;19.046;2022-10-31T08:04:42;100942.63;;;11.85;100.00
46347;BME280;32057;47.830;19.046;2022-10-31T08:07:07;100949.69;;;11.89;100.00
46347;BME280;32057;47.830;19.046;2022-10-31T08:09:33;100955.06;;;11.95;100.00
46347;BME280;32057;47.830;19.046;2022-10-31T08:11:58;100945.59;;;11.99;100.00
46347;BME280;32057;47.830;19.046;2022-10-31T08:14:24;100949.06;;;11.99;100.00
46347;BME280;32057;47.830;19.046;2022-10-31T08:16:49;100956.91;;;11.99;100.00
46347;BME280;32057;47.830;19.046;2022-10-31T08:19:15;100956.84;;;11.98;100.00
46347;BME280;32057;47.830;19.046;2022-10-31T08:21:40;100957.72;;;11.97;100.00
46347;BME280;32057;47.830;19.046;2022-10-31T08:24:05;100949.91;;;11.97;100.00
46347;BME280;32057;47.830;19.046;2022-10-31T08:26:31;100954.19;;;11.96;100.00
46347;BME280;32057;47.830;19.046;2022-10-31T08:28:56;100954.19;;;11.94;100.00
46347;BME280;32057;47.830;19.046;2022-10-31T08:31:22;100951.53;;;11.93;100.00
46347;BME280;32057;47.830;19.046;2022-10-31T08:33:48;100954.09;;;11.91;100.00
46347;BME280;32057;47.830;19.046;2022-10-31T08:36:13;100957.69;;;11.95;100.00
46347;BME280;32057;47.830;19.046;2022-10-31T08:38:39;100962.03;;;11.96;100.00
46347;BME280;32057;47.830;19.046;2022-10-31T08:41:04;100950.63;;;11.91;100.00
46347;BME280;32057;47.830;19.046;2022-10-31T08:43:30;100960.78;;;11.82;100.00
46347;BME280;32057;47.830;19.046;2022-10-31T08:45:55;100957.19;;;11.76;100.00
46347;BME280;32057;47.830;19.046;2022-10-31T08:48:21;100958.88;;;11.76;100.00
46347;BME280;32057;47.830;19.046;2022-10-31T08:50:46;100966.00;;;11.82;100.00
46347;BME280;32057;47.830;19.046;2022-10-31T08:53:17;100963.47;;;11.85;100.00
46347;BME280;32057;47.830;19.046;2022-10-31T08:55:46;100969.59;;;11.87;100.00
46347;BME280;32057;47.830;19.046;2022-10-31T08:58:14;100963.38;;;11.82;100.00
46347;BME280;32057;47.830;19.046;2022-10-31T09:00:45;100960.00;;;11.86;100.00
46347;BME280;32057;47.830;19.046;2022-10-31T09:03:23;100966.13;;;11.88;100.00
46347;BME280;32057;47.830;19.046;2022-10-31T09:05:50;100966.31;;;11.94;100.00
46347;BME280;32057;47.830;19.046;2022-10-31T09:08:16;100958.59;;;11.97;100.00
46347;BME280;32057;47.830;19.046;2022-10-31T09:10:42;100967.25;;;11.96;100.00
46347;BME280;32057;47.830;19.046;2022-10-31T09:13:26;100967.44;;;12.02;100.00
46347;BME280;32057;47.830;19.046;2022-10-31T09:15:52;100962.22;;;12.02;100.00
46347;BME280;32057;47.830;19.046;2022-10-31T09:18:22;100967.47;;;12.05;100.00
46347;BME280;32057;47.830;19.046;2022-10-31T09:20:49;100964.09;;;12.09;100.00
46347;BME280;32057;47.830;19.046;2022-10-31T09:23:17;100966.66;;;12.06;100.00
46347;BME280;32057;47.830;19.046;2022-10-31T09:25:42;100965.88;;;12.10;100.00
46347;BME280;32057;47.830;19.046;2022-10-31T09:28:11;100968.59;;;12.15;100.00
46347;BME280;32057;47.830;19.046;2022-10-31T09:30:37;100965.94;;;12.13;100.00
46347;BME280;32057;47.830;19.046;2022-10-31T09:33:09;100967.69;;;12.13;100.00
46347;BME280;32057;47.830;19.046;2022-10-31T09:35:34;100969.41;;;12.14;100.00
46347;BME280;32057;47.830;19.046;2022-10-31T09:38:01;100973.78;;;12.13;100.00
46347;BME280;32057;47.830;19.046;2022-10-31T09:40:39;100964.19;;;12.12;100.00
46347;BME280;32057;47.830;19.046;2022-10-31T09:43:15;100966.84;;;12.15;100.00
46347;BME280;32057;47.830;19.046;2022-10-31T09:45:50;100968.53;;;12.13;100.00
46347;BME280;32057;47.830;19.046;2022-10-31T09:51:07;100975.56;;;12.16;100.00
46347;BME280;32057;47.830;19.046;2022-10-31T09:56:18;100965.94;;;12.13;100.00
46347;BME280;32057;47.830;19.046;2022-10-31T09:58:48;100971.25;;;12.17;100.00
46347;BME280;32057;47.830;19.046;2022-10-31T10:04:10;100969.50;;;12.17;100.00
46347;BME280;32057;47.830;19.046;2022-10-31T10:06:45;100961.72;;;12.19;100.00
46347;BME280;32057;47.830;19.046;2022-10-31T10:09:11;100962.56;;;12.18;100.00
46347;BME280;32057;47.830;19.046;2022-10-31T10:12:08;100960.03;;;12.21;100.00
46347;BME280;32057;47.830;19.046;2022-10-31T10:17:50;100965.31;;;12.24;100.00
46347;BME280;32057;47.830;19.046;2022-10-31T10:23:23;100967.03;;;12.23;100.00
46347;BME280;32057;47.830;19.046;2022-10-31T10:26:17;100961.78;;;12.20;100.00
46347;BME280;32057;47.830;19.046;2022-10-31T10:28:46;100968.00;;;12.27;100.00
46347;BME280;32057;47.830;19.046;2022-10-31T10:31:20;100962.84;;;12.30;100.00
46347;BME280;32057;47.830;19.046;2022-10-31T10:34:10;100968.94;;;12.29;100.00
46347;BME280;32057;47.830;19.046;2022-10-31T10:36:59;100957.63;;;12.30;100.00
46347;BME280;32057;47.830;19.046;2022-10-31T10:39:28;100958.50;;;12.29;100.00
46347;BME280;32057;47.830;19.046;2022-10-31T10:41:55;100958.53;;;12.30;100.00
46347;BME280;32057;47.830;19.046;2022-10-31T10:44:46;100957.63;;;12.30;100.00
46347;BME280;32057;47.830;19.046;2022-10-31T10:47:39;100959.41;;;12.31;100.00
46347;BME280;32057;47.830;19.046;2022-10-31T10:50:15;100952.50;;;12.33;100.00
46347;BME280;32057;47.830;19.046;2022-10-31T10:55:27;100954.41;;;12.40;100.00
46347;BME280;32057;47.830;19.046;2022-10-31T10:58:03;100956.03;;;12.35;100.00
46347;BME280;32057;47.830;19.046;2022-10-31T11:00:32;100948.09;;;12.30;100.00
46347;BME280;32057;47.830;19.046;2022-10-31T11:02:59;100948.81;;;12.25;100.00
46347;BME280;32057;47.830;19.046;2022-10-31T11:05:39;100943.75;;;12.31;100.00
46347;BME280;32057;47.830;19.046;2022-10-31T11:08:06;100950.72;;;12.32;100.00
46347;BME280;32057;47.830;19.046;2022-10-31T11:10:32;100940.28;;;12.32;100.00
46347;BME280;32057;47.830;19.046;2022-10-31T11:13:22;100938.75;;;12.40;100.00
46347;BME280;32057;47.830;19.046;2022-10-31T11:15:56;100937.06;;;12.42;100.00
46347;BME280;32057;47.830;19.046;2022-10-31T11:18:25;100942.19;;;12.39;100.00
46347;BME280;32057;47.830;19.046;2022-10-31T11:20:54;100933.66;;;12.46;100.00
46347;BME280;32057;47.830;19.046;2022-10-31T11:23:21;100934.44;;;12.44;100.00
46347;BME280;32057;47.830;19.046;2022-10-31T11:28:19;100942.06;;;12.33;100.00
46347;BME280;32057;47.830;19.046;2022-10-31T11:30:47;100935.06;;;12.32;100.00
46347;BME280;32057;47.830;19.046;2022-10-31T11:33:20;100928.91;;;12.30;100.00
46347;BME280;32057;47.830;19.046;2022-10-31T11:35:47;100935.03;;;12.30;100.00
46347;BME280;32057;47.830;19.046;2022-10-31T11:38:21;100935.13;;;12.35;100.00
46347;BME280;32057;47.830;19.046;2022-10-31T11:43:24;100935.13;;;12.35;100.00
46347;BME280;32057;47.830;19.046;2022-10-31T11:45:50;100930.00;;;12.38;100.00
46347;BME280;32057;47.830;19.046;2022-10-31T11:48:21;100935.28;;;12.41;100.00
46347;BME280;32057;47.830;19.046;2022-10-31T11:50:54;100926.63;;;12.42;100.00
46347;BME280;32057;47.830;19.046;2022-10-31T11:53:26;100929.22;;;12.44;100.00
46347;BME280;32057;47.830;19.046;2022-10-31T11:58:31;100924.75;;;12.37;100.00
46347;BME280;32057;47.830;19.046;2022-10-31T12:00:57;100926.44;;;12.36;100.00
46347;BME280;32057;47.830;19.046;2022-10-31T12:08:34;100925.53;;;12.32;100.00
46347;BME280;32057;47.830;19.046;2022-10-31T12:16:57;100921.31;;;12.39;100.00
46347;BME280;32057;47.830;19.046;2022-10-31T12:19:51;100929.09;;;12.38;100.00
46347;BME280;32057;47.830;19.046;2022-10-31T12:30:28;100924.84;;;12.41;100.00
46347;BME280;32057;47.830;19.046;2022-10-31T12:38:50;100922.31;;;12.46;100.00
46347;BME280;32057;47.830;19.046;2022-10-31T12:44:06;100921.41;;;12.44;100.00
46347;BME280;32057;47.830;19.046;2022-10-31T12:49:10;100922.09;;;12.35;100.00
46347;BME280;32057;47.830;19.046;2022-10-31T12:57:23;100922.19;;;12.40;100.00
46347;BME280;32057;47.830;19.046;2022-10-31T13:00:17;100910.00;;;12.39;100.00
46347;BME280;32057;47.830;19.046;2022-10-31T13:02:48;100909.97;;;12.37;100.00
46347;BME280;32057;47.830;19.046;2022-10-31T13:07:54;100908.09;;;12.31;100.00
46347;BME280;32057;47.830;19.046;2022-10-31T13:10:35;100908.97;;;12.32;100.00
46347;BME280;32057;47.830;19.046;2022-10-31T13:13:16;100902.88;;;12.31;100.00
46347;BME280;32057;47.830;19.046;2022-10-31T13:16:04;100902.97;;;12.36;100.00
46347;BME280;32057;47.830;19.046;2022-10-31T13:21:25;100902.03;;;12.34;100.00
46347;BME280;32057;47.830;19.046;2022-10-31T13:23:52;100899.47;;;12.35;100.00
46347;BME280;32057;47.830;19.046;2022-10-31T13:26:28;100906.44;;;12.35;100.00
46347;BME280;32057;47.830;19.046;2022-10-31T13:29:14;100905.66;;;12.39;100.00
46347;BME280;32057;47.830;19.046;2022-10-31T13:31:42;100904.78;;;12.39;100.00
46347;BME280;32057;47.830;19.046;2022-10-31T13:34:30;100908.16;;;12.34;100.00
46347;BME280;32057;47.830;19.046;2022-10-31T13:45:21;100907.22;;;12.31;100.00
46347;BME280;32057;47.830;19.046;2022-10-31T13:50:39;100908.19;;;12.36;100.00
46347;BME280;32057;47.830;19.046;2022-10-31T13:53:19;100898.50;;;12.30;100.00
46347;BME280;32057;47.830;19.046;2022-10-31T13:55:47;100907.81;;;12.19;100.00
46347;BME280;32057;47.830;19.046;2022-10-31T13:58:22;100899.97;;;12.19;100.00
46347;BME280;32057;47.830;19.046;2022-10-31T14:03:41;100905.25;;;12.21;100.00
46347;BME280;32057;47.830;19.046;2022-10-31T14:06:09;100900.09;;;12.24;100.00
46347;BME280;32057;47.830;19.046;2022-10-31T14:08:39;100906.28;;;12.29;100.00
46347;BME280;32057;47.830;19.046;2022-10-31T14:11:07;100900.03;;;12.21;100.00
46347;BME280;32057;47.830;19.046;2022-10-31T14:13:44;100900.81;;;12.18;100.00
46347;BME280;32057;47.830;19.046;2022-10-31T14:18:49;100902.50;;;12.16;100.00
46347;BME280;32057;47.830;19.046;2022-10-31T14:23:51;100901.72;;;12.19;100.00
46347;BME280;32057;47.830;19.046;2022-10-31T14:28:51;100895.59;;;12.17;100.00
46347;BME280;32057;47.830;19.046;2022-10-31T14:31:31;100904.28;;;12.17;100.00
46347;BME280;32057;47.830;19.046;2022-10-31T14:33:59;100904.19;;;12.12;100.00